»·PEaware :: N104PH KSNA-L35

N104PH :: KSNA-L35

FLIGHT INFORMATION

Flight Status: Arrived
Operator: Privately registered:
United States
More flights under this callsign
Pilot: Luis Carlos C. (28559)
Aircraft: Unknown
(L35)
More flights by this aircraft type
Origin: KSNA John Wayne-Orange Co
United States
Destination: L35 Big Bear City
United States
More flights between these airports :: More routes between these airports
Route: +MUSEL8 POM V394 APLES V386 OKACO
File this flight plan on PilotEdge
Remarks:
Altitude:
(Current/Filed)
13,000ft
Speed:
(Current/Filed)
300kts
Departed: 30-Mar-20 04:18 PM
Arrived: 30-Mar-20 04:43 PM
Distance/Time
Traveled:
61nm/0:25
Distance/Time
To Go:
Arrived

Flight Plot

Page will automatically refresh every two minutes.

Flight plan parsing failed; only flown route is shown


Map Options




Map Legend


Flown Route
Filed Route
Departure Airport
Arrival Airport
Navaid (VOR, NDB)
Fix

Horizontal Profiles

Position Reports

Time Latitude Longitude Heading Altitude Ground
Speed
30-Mar-20 15:50 33.665135 -117.874129 220 58ft 0kts
30-Mar-20 15:51 33.665135 -117.874129 220 58ft 0kts
30-Mar-20 15:52 33.665135 -117.874129 220 58ft 0kts
30-Mar-20 15:53 33.665135 -117.874129 220 58ft 0kts
30-Mar-20 15:54 33.665135 -117.874129 220 58ft 0kts
30-Mar-20 15:55 33.665135 -117.874129 220 58ft 0kts
30-Mar-20 15:56 33.665135 -117.874129 220 58ft 0kts
30-Mar-20 15:57 33.665135 -117.874129 220 58ft 0kts
30-Mar-20 15:58 33.665135 -117.874129 220 58ft 0kts
30-Mar-20 15:59 33.665135 -117.874129 220 58ft 0kts
30-Mar-20 16:00 33.665135 -117.874129 220 58ft 0kts
30-Mar-20 16:01 33.665135 -117.874129 220 58ft 0kts
30-Mar-20 16:02 33.665134 -117.874129 220 58ft 0kts
30-Mar-20 16:03 33.665134 -117.874129 220 58ft 0kts
30-Mar-20 16:04 33.665134 -117.874129 220 58ft 0kts
30-Mar-20 16:05 33.665134 -117.874130 220 59ft 0kts
30-Mar-20 16:05 33.665134 -117.874130 220 59ft 0kts
30-Mar-20 16:06 33.665134 -117.874130 220 59ft 0kts
30-Mar-20 16:08 33.665134 -117.874130 220 59ft 0kts
30-Mar-20 16:08 33.665134 -117.874130 220 59ft 0kts
30-Mar-20 16:09 33.665106 -117.874184 254 59ft 0kts
30-Mar-20 16:10 33.667374 -117.872716 39 59ft 16kts
30-Mar-20 16:12 33.670539 -117.869431 40 59ft 9kts
30-Mar-20 16:12 33.672553 -117.867845 32 59ft 17kts
30-Mar-20 16:13 33.675956 -117.865311 27 59ft 14kts
30-Mar-20 16:14 33.679916 -117.862817 27 59ft 4kts
30-Mar-20 16:15 33.680622 -117.863089 297 59ft 0kts
30-Mar-20 16:16 33.680886 -117.863698 297 59ft 11kts
30-Mar-20 16:17 33.671429 -117.871511 207 204ft 172kts
30-Mar-20 16:18 33.617274 -117.885875 191 4075ft 190kts
30-Mar-20 16:19 33.576822 -117.910846 237 5798ft 261kts
30-Mar-20 16:20 33.592188 -117.984163 330 8743ft 279kts
30-Mar-20 16:21 33.646408 -118.002203 346 10912ft 288kts
30-Mar-20 16:22 33.719610 -118.029040 341 13241ft 303kts
30-Mar-20 16:23 33.803866 -118.034512 27 14716ft 335kts
30-Mar-20 16:24 33.882668 -117.964311 37 14697ft 381kts
30-Mar-20 16:25 33.965956 -117.889251 37 14690ft 350kts
30-Mar-20 16:26 34.043472 -117.818783 37 14708ft 344kts
30-Mar-20 16:27 34.109414 -117.745273 48 14741ft 377kts
30-Mar-20 16:28 34.184224 -117.644334 48 14736ft 415kts
30-Mar-20 16:29 34.255420 -117.548150 49 14734ft 360kts
30-Mar-20 16:30 34.321175 -117.459005 49 14743ft 364kts
30-Mar-20 16:31 34.389064 -117.366815 48 14764ft 354kts
30-Mar-20 16:32 34.452326 -117.280695 49 14779ft 334kts
30-Mar-20 16:33 34.513286 -117.197481 48 14836ft 325kts
30-Mar-20 16:34 34.543806 -117.100099 95 14787ft 293kts
30-Mar-20 16:35 34.535414 -117.024457 111 12464ft 279kts
30-Mar-20 16:36 34.490373 -116.950180 131 10062ft 271kts
30-Mar-20 16:37 34.444230 -116.886162 131 9980ft 247kts
30-Mar-20 16:38 34.387136 -116.852498 164 9677ft 221kts
30-Mar-20 16:39 34.333125 -116.830251 156 8662ft 167kts
30-Mar-20 16:40 34.293363 -116.804524 144 7540ft 149kts
30-Mar-20 16:41 34.264866 -116.827079 253 7152ft 159kts
30-Mar-20 16:42 34.263760 -116.859076 264 6755ft 3kts
30-Mar-20 16:43 34.262845 -116.858519 117 6755ft 4kts
30-Mar-20 16:44 34.263003 -116.858247 355 6755ft 0kts
30-Mar-20 16:45 34.263003 -116.858247 355 6755ft 0kts
30-Mar-20 16:46 34.263003 -116.858247 355 6755ft 0kts
30-Mar-20 16:47 34.263003 -116.858247 355 6755ft 0kts
30-Mar-20 16:48 34.263003 -116.858247 355 6755ft 0kts
30-Mar-20 16:49 34.263003 -116.858247 355 6755ft 0kts
30-Mar-20 16:50 34.263003 -116.858247 355 6755ft 0kts
30-Mar-20 16:51 34.263003 -116.858247 355 6755ft 0kts
30-Mar-20 16:52 34.263003 -116.858247 355 6755ft 0kts
30-Mar-20 16:53 34.263003 -116.858247 355 6755ft 0kts
30-Mar-20 16:54 34.263003 -116.858247 355 6755ft 0kts
30-Mar-20 16:55 34.263003 -116.858247 355 6755ft 0kts
30-Mar-20 16:56 34.263003 -116.858247 355 6755ft 0kts

Navigation Log

Ident Type
Flight plan parsing failed, navigation log unavailable